speedybarcodes.com alexa rank chart, speedybarcodes.com alexa rank daily changes

speedybarcodes.com alexa rank chart, speedybarcodes.com alexa rank daily changes

speedybarcodes.com
Actual rank:
382 082

RANK HISTORY

Date Rank Diff
2017/01/15 382 082 -13 305
2017/01/14 395 387 +5 769
2017/01/13 389 618 -3 824
2017/01/12 393 442 +3 297
2017/01/11 390 145 +3 214
2017/01/10 386 931 -2 502
2017/01/09 389 433 +11 594
2017/01/08 377 839 +6 822
2017/01/07 371 017 +4 999
2017/01/06 366 018 +6 395
2017/01/05 359 623 +697
2017/01/04 358 926 +10 152
2017/01/03 348 774 -1 302
2017/01/02 350 076 +7 940
2017/01/01 342 136 -9 336
2016/12/31 351 472 -5 334
2016/12/30 356 806 +4 647
2016/12/29 352 159 -6 906
2016/12/28 359 065 -2 058
2016/12/27 361 123 -6
2016/12/26 361 129 +11 726
2016/12/25 349 403 +5 056
2016/12/24 344 347 +13 406
2016/12/23 330 941 -2 170
2016/12/22 333 111 -1 957
2016/12/21 335 068 +7 553
2016/12/20 327 515 +5 145
2016/12/19 322 370 -2 985
2016/12/18 325 355 -6 310
2016/12/17 331 665 -1 534
2016/12/16 333 199 -6 787
2016/12/15 339 986 -3 164
2016/12/14 343 150 -4 791
2016/12/13 347 941 +11 879
2016/12/12 336 062 +5 621
2016/12/11 330 441 -1 672
2016/12/10 332 113 +9 770
2016/12/09 322 343 -7 377
2016/12/08 329 720 +17 741
2016/12/07 311 979 +269
2016/12/06 311 710 -1 071
2016/12/05 312 781 +807
2016/12/04 311 974 -2 966
2016/12/02 314 940 +7 965
2016/12/01 306 975 +8 482
2016/11/30 298 493 +1 255
2016/11/29 297 238 +8 691
2016/11/28 288 547 -3 736
2016/11/27 292 283 +14 639
2016/11/26 277 644 -9 022
2016/11/25 286 666 -11 586
2016/11/24 298 252 -10 828
2016/11/23 309 080 -10 120
2016/11/19 319 200 -8 976
2016/11/18 328 176 +4 253
2016/11/17 323 923 -8 310
2016/11/16 332 233

WIDGET FOR YOUR SITE

DOMAINS WITH THE NEAREST RANK

Domain Rank
campustimesug.com 382 077
namadijexam.com 382 078
van05manage04.site 382 079
libre-inc.co.jp 382 080
fursys.com 382 081
speedybarcodes.com 382 082
eutekne.it 382 083
kfit.com 382 084
format30.com 382 085
unicampus.it 382 086
iusinfo.hr 382 087

DOMAINS WITH THE NEAREST RANK BY TLD .com

Domain Rank
darrenpeter.com 382 071
aktuelno24h.com 382 072
campustimesug.com 382 077
namadijexam.com 382 078
fursys.com 382 081
speedybarcodes.com 382 082
kfit.com 382 084
format30.com 382 085
salaun-holidays.com 382 088
drexeljobs.com 382 090
skibittersweet.com 382 091